Time;durP1;ratioP1;P1;durP2;ratioP2;P2;SDS_P1;SDS_P2;PMS_P1;PMS_P2;Temp;Humidity;BMP_temperature;BMP_pressure;BME280_temperature;BME280_humidity;BME280_pressure;Samples;Min_cycle;Max_cycle;Signal;HPM_P1;HPM_P2
2022/07/24 12:48:35;;;;;;;1.30;1.30;;;34.60;86.20;;;;;;5072235;22;21244;-80
2022/07/24 12:52:00;;;;;;;0.87;0.87;;;34.20;83.80;;;;;;5076302;27;20389;-65
2022/07/24 12:54:35;;;;;;;0.90;0.90;;;34.10;85.80;;;;;;5056601;28;20999;-74
2022/07/24 12:57:09;;;;;;;1.00;1.00;;;34.00;86.40;;;;;;5080646;28;20506;-75
2022/07/24 12:59:44;;;;;;;0.85;0.85;;;33.90;85.20;;;;;;5075909;28;20422;-76
2022/07/24 13:02:20;;;;;;;1.00;1.00;;;34.00;83.70;;;;;;5073466;28;20538;-74
2022/07/24 13:04:51;;;;;;;1.00;1.00;;;33.80;82.70;;;;;;5064785;28;20437;-72
2022/07/24 13:07:21;;;;;;;0.90;0.90;;;34.00;83.80;;;;;;5071794;28;20454;-74
2022/07/24 13:09:50;;;;;;;0.90;0.90;;;34.30;84.10;;;;;;5063356;28;20430;-73
2022/07/24 13:12:18;;;;;;;0.90;0.90;;;34.30;85.40;;;;;;5063874;28;20426;-71
2022/07/24 13:14:45;;;;;;;1.15;1.15;;;34.60;86.10;;;;;;5073844;28;20462;-69
2022/07/24 13:17:15;;;;;;;1.13;1.13;;;34.60;87.20;;;;;;5063714;28;20429;-70
2022/07/24 13:19:47;;;;;;;0.98;0.98;;;34.70;84.90;;;;;;5075768;28;20528;-72
2022/07/24 13:22:15;;;;;;;0.80;0.80;;;34.90;86.20;;;;;;5071368;28;20431;-70
2022/07/24 13:24:43;;;;;;;0.93;0.93;;;34.70;84.10;;;;;;5058233;28;20431;-68
2022/07/24 13:27:14;;;;;;;0.90;0.90;;;34.90;82.70;;;;;;5056995;28;20823;-71
2022/07/24 13:29:42;;;;;;;0.98;0.98;;;35.20;82.60;;;;;;5070568;28;20440;-69
2022/07/24 13:32:09;;;;;;;1.30;1.00;;;35.30;83.50;;;;;;5058479;28;20426;-76
2022/07/24 13:34:35;;;;;;;0.90;0.90;;;35.50;82.00;;;;;;5073853;28;20427;-74
2022/07/24 13:37:05;;;;;;;1.00;1.00;;;35.90;81.40;;;;;;5071715;28;20503;-71
2022/07/24 13:39:39;;;;;;;1.30;1.20;;;36.30;80.40;;;;;;5061223;28;20428;-70
2022/07/24 13:42:07;;;;;;;0.90;0.90;;;36.40;80.40;;;;;;5067741;28;20492;-70
2022/07/24 13:44:33;;;;;;;0.90;0.90;;;36.70;80.80;;;;;;5072829;28;20973;-70
2022/07/24 13:47:00;;;;;;;1.00;1.00;;;36.80;80.90;;;;;;5067308;28;20776;-69
2022/07/24 13:49:27;;;;;;;1.10;1.10;;;36.20;78.90;;;;;;5053609;28;20977;-72
2022/07/24 13:51:54;;;;;;;1.00;1.00;;;36.40;80.30;;;;;;5084957;28;20429;-70
2022/07/24 13:54:21;;;;;;;1.10;1.00;;;36.60;79.70;;;;;;5065973;28;20931;-71
2022/07/24 13:56:49;;;;;;;0.93;0.93;;;36.80;80.40;;;;;;5070841;28;20429;-70
2022/07/24 13:59:16;;;;;;;1.00;1.00;;;37.30;79.60;;;;;;5063423;28;20512;-70
2022/07/24 14:01:43;;;;;;;0.80;0.80;;;37.70;80.10;;;;;;5060305;28;20439;-69
2022/07/24 14:04:10;;;;;;;0.90;0.90;;;37.50;78.80;;;;;;5051566;28;20432;-70
2022/07/24 14:06:56;;;;;;;1.02;1.02;;;36.70;77.80;;;;;;5050654;28;20446;-70
2022/07/24 14:09:24;;;;;;;1.00;1.00;;;37.10;78.80;;;;;;5050584;28;20468;-70
2022/07/24 14:11:51;;;;;;;1.08;1.08;;;37.30;77.50;;;;;;5079258;28;20952;-69
2022/07/24 14:14:22;;;;;;;1.08;1.08;;;36.90;78.80;;;;;;5049153;28;20433;-71
2022/07/24 14:16:49;;;;;;;0.90;0.90;;;37.20;77.70;;;;;;5044371;28;20972;-72
2022/07/24 14:19:16;;;;;;;1.10;1.10;;;37.40;77.70;;;;;;5050672;28;20977;-71
2022/07/24 14:21:49;;;;;;;1.00;1.00;;;37.50;77.70;;;;;;5061690;28;20518;-71
2022/07/24 14:24:18;;;;;;;1.08;1.08;;;37.40;76.80;;;;;;5048416;28;20430;-69
2022/07/24 14:26:47;;;;;;;0.95;0.95;;;37.30;77.50;;;;;;5065431;28;20433;-70
2022/07/24 14:29:14;;;;;;;0.90;0.90;;;36.70;78.00;;;;;;5043961;28;20517;-68
2022/07/24 14:31:41;;;;;;;1.00;1.00;;;36.80;77.80;;;;;;5053710;28;20514;-72
2022/07/24 14:34:15;;;;;;;0.90;0.90;;;36.80;77.60;;;;;;5038153;28;20425;-69
2022/07/24 14:36:42;;;;;;;1.10;1.10;;;35.90;78.00;;;;;;5045263;28;20425;-69
2022/07/24 14:39:09;;;;;;;1.02;1.02;;;36.90;78.60;;;;;;5036068;28;20517;-72
2022/07/24 14:41:36;;;;;;;1.05;1.05;;;37.90;77.30;;;;;;5044330;28;20941;-67
2022/07/24 14:44:06;;;;;;;1.10;1.10;;;38.10;74.40;;;;;;5048610;28;20425;-70
2022/07/24 14:46:37;;;;;;;0.85;0.85;;;38.00;76.20;;;;;;5051121;28;20948;-68
2022/07/24 14:49:04;;;;;;;0.90;0.90;;;38.80;76.10;;;;;;5049757;28;20439;-68
2022/07/24 14:51:30;;;;;;;1.10;1.00;;;38.30;75.40;;;;;;5043607;28;20437;-71
2022/07/24 14:53:57;;;;;;;1.00;1.00;;;38.20;74.30;;;;;;5042933;28;20510;-69
2022/07/24 14:56:24;;;;;;;1.05;1.00;;;39.00;75.50;;;;;;5046866;28;20429;-69
2022/07/24 14:58:53;;;;;;;1.02;1.02;;;39.20;74.80;;;;;;5042868;28;20463;-71
2022/07/24 15:01:21;;;;;;;1.10;1.10;;;39.80;74.30;;;;;;5040250;28;20514;-71
2022/07/24 15:03:47;;;;;;;1.10;1.10;;;39.20;72.70;;;;;;5041562;28;20506;-69
2022/07/24 15:06:17;;;;;;;1.10;1.10;;;39.20;74.90;;;;;;5048423;28;20520;-69
2022/07/24 15:08:43;;;;;;;1.42;1.33;;;39.40;73.30;;;;;;5051091;28;20861;-69
2022/07/24 15:11:10;;;;;;;1.00;1.00;;;39.80;73.20;;;;;;5058357;28;20940;-70
2022/07/24 15:13:40;;;;;;;1.15;1.15;;;40.00;72.90;;;;;;5039227;28;20429;-72
2022/07/24 15:16:08;;;;;;;1.08;1.08;;;40.60;74.00;;;;;;5039526;28;20427;-70
2022/07/24 15:18:37;;;;;;;1.10;1.10;;;40.50;72.60;;;;;;5051688;28;20432;-70
2022/07/24 15:21:06;;;;;;;1.60;1.60;;;40.50;74.20;;;;;;5050695;28;20437;-71
2022/07/24 15:23:33;;;;;;;1.10;1.10;;;41.10;71.80;;;;;;5056125;28;20448;-71
2022/07/24 15:26:00;;;;;;;1.10;1.10;;;41.50;72.30;;;;;;5041527;28;20438;-72
2022/07/24 15:28:27;;;;;;;1.20;1.20;;;41.50;70.60;;;;;;5028612;28;20433;-72
2022/07/24 15:30:54;;;;;;;0.90;0.90;;;40.60;70.00;;;;;;5039243;28;20431;-72
2022/07/24 15:33:20;;;;;;;1.13;1.13;;;38.30;70.80;;;;;;5043627;28;20432;-73
2022/07/24 15:35:50;;;;;;;1.00;1.00;;;37.90;72.20;;;;;;5043555;28;20474;-74
2022/07/24 15:38:17;;;;;;;0.98;0.98;;;36.60;73.60;;;;;;5046280;28;20429;-72
2022/07/24 15:40:44;;;;;;;1.00;1.00;;;36.90;74.10;;;;;;5044659;28;20972;-73
2022/07/24 15:43:15;;;;;;;0.90;0.90;;;37.20;73.00;;;;;;5036620;28;20443;-74
2022/07/24 15:45:41;;;;;;;1.02;1.02;;;38.00;73.00;;;;;;5045684;28;20527;-74
2022/07/24 15:48:08;;;;;;;1.05;1.05;;;39.10;71.40;;;;;;5046239;28;20489;-72
2022/07/24 15:50:35;;;;;;;0.95;0.95;;;39.40;71.50;;;;;;5037677;28;20433;-73
2022/07/24 15:53:02;;;;;;;1.05;1.05;;;39.70;70.90;;;;;;5036150;28;20431;-74
2022/07/24 15:55:29;;;;;;;1.20;1.20;;;38.60;72.70;;;;;;5044746;28;20422;-75
2022/07/24 15:57:57;;;;;;;1.10;1.10;;;38.10;74.40;;;;;;5040209;28;20832;-75
2022/07/24 16:00:24;;;;;;;1.05;1.05;;;37.00;74.40;;;;;;5043859;28;20436;-74
2022/07/24 16:02:54;;;;;;;1.00;1.00;;;36.00;76.20;;;;;;5039068;28;20427;-74
2022/07/24 16:05:22;;;;;;;1.27;1.17;;;35.10;77.30;;;;;;5037033;28;20435;-74
2022/07/24 16:07:50;;;;;;;0.98;0.98;;;34.90;78.10;;;;;;5042505;28;20517;-72
2022/07/24 16:10:18;;;;;;;1.40;0.90;;;34.40;77.90;;;;;;5047812;28;20435;-73
2022/07/24 16:12:45;;;;;;;0.97;0.97;;;33.70;79.30;;;;;;5068504;28;20837;-72
2022/07/24 16:15:12;;;;;;;0.85;0.85;;;32.90;80.00;;;;;;5044030;28;20437;-72
2022/07/24 16:17:42;;;;;;;1.10;1.08;;;32.30;80.80;;;;;;5045661;28;20508;-72
2022/07/24 16:20:10;;;;;;;0.90;0.90;;;31.90;82.40;;;;;;5048649;28;20527;-73
2022/07/24 16:22:37;;;;;;;1.15;1.15;;;31.70;82.60;;;;;;5045509;28;20846;-73
2022/07/24 16:25:05;;;;;;;1.00;1.00;;;31.50;82.80;;;;;;5052048;28;21130;-78
2022/07/24 16:27:33;;;;;;;1.00;1.00;;;31.60;84.10;;;;;;5051477;28;20435;-74
2022/07/24 16:30:03;;;;;;;1.05;0.85;;;31.70;83.60;;;;;;5045454;28;20942;-71
2022/07/24 16:32:30;;;;;;;1.05;1.05;;;31.70;83.30;;;;;;5038121;28;20490;-73
2022/07/24 16:35:03;;;;;;;0.80;0.80;;;31.70;82.70;;;;;;5045701;28;20435;-73
2022/07/24 16:37:32;;;;;;;1.23;1.05;;;31.50;84.60;;;;;;5056319;28;20452;-73
2022/07/24 16:40:00;;;;;;;1.03;1.03;;;31.40;84.40;;;;;;5037460;28;20438;-74
2022/07/24 16:42:27;;;;;;;0.93;0.93;;;31.30;83.40;;;;;;5040062;28;20452;-72
2022/07/24 16:44:56;;;;;;;1.20;1.10;;;31.30;84.40;;;;;;5035909;28;20489;-74
2022/07/24 16:47:24;;;;;;;1.15;1.15;;;31.30;86.20;;;;;;5045878;28;20514;-75
2022/07/24 16:49:50;;;;;;;1.05;0.95;;;31.40;85.60;;;;;;5050469;28;20520;-75
2022/07/24 16:52:17;;;;;;;0.90;0.90;;;31.40;85.20;;;;;;5044761;28;20429;-74
2022/07/24 16:55:12;;;;;;;1.00;1.00;;;31.50;85.80;;;;;;5047769;28;20546;-75
2022/07/24 16:57:40;;;;;;;1.15;1.15;;;31.40;85.20;;;;;;5047938;28;20494;-75
2022/07/24 17:00:11;;;;;;;1.10;1.10;;;31.30;85.20;;;;;;5050854;28;20441;-71
2022/07/24 17:02:39;;;;;;;1.10;1.10;;;31.10;84.40;;;;;;5032044;28;20464;-74
2022/07/24 17:05:06;;;;;;;1.30;1.30;;;31.00;84.30;;;;;;5051530;28;20486;-73
2022/07/24 17:07:33;;;;;;;1.02;1.02;;;30.90;84.80;;;;;;5031701;28;20459;-73
2022/07/24 17:10:00;;;;;;;1.40;1.30;;;30.80;85.00;;;;;;5047686;28;20446;-73
2022/07/24 17:12:27;;;;;;;1.13;1.13;;;30.70;85.70;;;;;;5050559;28;20436;-74
2022/07/24 17:14:54;;;;;;;1.02;1.02;;;30.60;85.20;;;;;;5038942;28;21005;-75
2022/07/24 17:17:23;;;;;;;1.20;1.20;;;30.60;86.10;;;;;;5045682;28;20434;-77
2022/07/24 17:19:50;;;;;;;1.10;1.00;;;30.60;87.00;;;;;;5058120;28;20929;-76
2022/07/24 17:22:22;;;;;;;1.25;1.25;;;30.70;87.70;;;;;;5045465;28;20528;-76
2022/07/24 17:24:50;;;;;;;1.10;1.10;;;30.70;87.30;;;;;;5040264;28;20449;-74
2022/07/24 17:27:18;;;;;;;1.00;1.00;;;30.70;86.60;;;;;;5057975;28;20472;-75
2022/07/24 17:29:48;;;;;;;1.15;1.15;;;30.60;86.60;;;;;;5038020;28;20432;-75
2022/07/24 17:32:15;;;;;;;1.23;1.20;;;30.50;88.50;;;;;;5043847;28;20436;-74
2022/07/24 17:34:42;;;;;;;1.23;1.23;;;30.40;87.60;;;;;;5052014;28;20439;-78
2022/07/24 17:37:08;;;;;;;0.95;0.95;;;30.40;88.80;;;;;;5052593;28;20537;-74
2022/07/24 17:39:50;;;;;;;1.10;1.10;;;30.30;88.60;;;;;;5063142;28;20443;-76
2022/07/24 17:42:18;;;;;;;1.00;1.00;;;30.10;90.40;;;;;;5046661;28;20436;-75
2022/07/24 17:44:45;;;;;;;1.00;1.00;;;30.00;88.80;;;;;;5059390;28;20526;-76
2022/07/24 17:47:11;;;;;;;1.20;1.10;;;29.90;88.40;;;;;;5045408;28;20441;-74
2022/07/24 17:49:38;;;;;;;0.80;0.80;;;29.90;87.40;;;;;;5058650;28;20946;-75
2022/07/24 17:52:05;;;;;;;1.00;1.00;;;29.80;87.90;;;;;;5046378;28;20513;-75
2022/07/24 17:54:31;;;;;;;0.90;0.90;;;29.80;87.90;;;;;;5050843;28;20430;-74
2022/07/24 17:56:58;;;;;;;1.10;1.10;;;29.70;88.60;;;;;;5047652;28;20461;-75
2022/07/24 17:59:25;;;;;;;1.05;1.05;;;29.70;89.30;;;;;;5061401;28;20430;-75
2022/07/24 18:01:52;;;;;;;1.08;1.08;;;29.50;90.60;;;;;;5048072;28;20459;-75
2022/07/24 18:04:20;;;;;;;0.88;0.88;;;29.50;89.70;;;;;;5041553;28;20436;-76
2022/07/24 18:06:46;;;;;;;1.10;1.10;;;29.40;89.80;;;;;;5039033;28;20521;-76
2022/07/24 18:09:13;;;;;;;1.20;1.20;;;29.30;90.10;;;;;;5039160;28;20550;-76
2022/07/24 18:11:40;;;;;;;1.13;1.13;;;29.20;90.20;;;;;;5043325;28;20443;-75
2022/07/24 18:14:07;;;;;;;1.08;1.08;;;29.00;90.30;;;;;;5051348;28;20440;-74
2022/07/24 18:16:38;;;;;;;1.00;1.00;;;28.90;90.40;;;;;;5045765;28;20988;-74
2022/07/24 18:19:05;;;;;;;1.20;1.20;;;28.80;90.60;;;;;;5053499;28;20433;-75
2022/07/24 18:21:32;;;;;;;1.17;1.17;;;28.70;90.90;;;;;;5042370;28;20434;-75
2022/07/24 18:23:59;;;;;;;1.30;1.30;;;28.50;91.10;;;;;;5039618;28;20481;-75
2022/07/24 18:26:28;;;;;;;1.02;1.02;;;28.40;91.30;;;;;;5049478;28;20452;-76
2022/07/24 18:28:58;;;;;;;1.10;1.10;;;28.40;91.70;;;;;;5042359;28;20486;-73
2022/07/24 18:31:25;;;;;;;1.20;1.20;;;28.60;91.60;;;;;;5049665;28;20439;-76
2022/07/24 18:33:52;;;;;;;1.40;1.30;;;28.60;91.80;;;;;;5044221;28;20435;-76
2022/07/24 18:36:19;;;;;;;1.33;1.23;;;28.40;92.00;;;;;;5046272;28;20453;-75
2022/07/24 18:38:48;;;;;;;1.17;1.17;;;28.10;91.90;;;;;;5062287;28;20470;-76
2022/07/24 18:41:21;;;;;;;1.20;1.20;;;27.80;91.90;;;;;;5040168;28;20425;-75
2022/07/24 18:43:48;;;;;;;1.10;1.10;;;27.50;92.20;;;;;;5045112;28;20429;-75
2022/07/24 18:46:15;;;;;;;1.20;1.20;;;27.20;92.50;;;;;;5052936;28;20425;-75
2022/07/24 18:48:42;;;;;;;1.00;1.00;;;27.00;93.20;;;;;;5045740;28;20516;-75
2022/07/24 18:51:09;;;;;;;0.93;0.93;;;26.70;93.70;;;;;;5059151;28;20433;-75
2022/07/24 18:53:51;;;;;;;1.13;1.13;;;26.50;94.30;;;;;;5060307;28;20427;-75
2022/07/24 18:56:21;;;;;;;1.02;1.00;;;26.30;95.50;;;;;;5047318;28;20422;-75
2022/07/24 18:58:48;;;;;;;1.15;1.10;;;26.10;96.10;;;;;;5054656;28;20512;-75
2022/07/24 19:01:15;;;;;;;1.10;1.10;;;25.90;95.90;;;;;;5047448;28;21313;-75
2022/07/24 19:03:49;;;;;;;1.20;1.20;;;25.70;95.90;;;;;;5056086;28;21157;-75
2022/07/24 19:06:16;;;;;;;1.30;1.20;;;25.60;96.30;;;;;;5050076;28;20448;-75
2022/07/24 19:08:44;;;;;;;1.33;1.30;;;25.50;96.60;;;;;;5046371;28;20432;-75
2022/07/24 19:11:11;;;;;;;1.50;1.17;;;25.40;97.50;;;;;;5049236;28;20517;-75
2022/07/24 19:13:37;;;;;;;1.10;1.10;;;25.20;97.80;;;;;;5046138;28;20425;-75
2022/07/24 19:16:06;;;;;;;1.00;1.00;;;25.10;98.10;;;;;;5048414;28;20512;-75
2022/07/24 19:18:33;;;;;;;1.10;1.10;;;25.00;98.70;;;;;;5048816;28;20429;-75
2022/07/24 19:21:00;;;;;;;1.55;1.45;;;24.80;99.20;;;;;;5054011;28;20523;-75
2022/07/24 19:23:27;;;;;;;1.30;1.20;;;24.60;99.90;;;;;;5059130;28;20470;-74
2022/07/24 19:25:59;;;;;;;1.10;1.10;;;24.30;99.90;;;;;;5070914;28;20427;-74
2022/07/24 19:28:25;;;;;;;1.17;1.15;;;24.20;99.80;;;;;;5059467;28;20519;-75
2022/07/24 19:30:53;;;;;;;1.30;1.30;;;24.10;99.90;;;;;;5048509;28;20994;-74
2022/07/24 19:33:19;;;;;;;1.60;1.10;;;24.00;99.90;;;;;;5049831;28;20431;-74
2022/07/24 19:35:46;;;;;;;1.17;1.10;;;23.90;99.90;;;;;;5062121;28;20518;-74
2022/07/24 19:38:16;;;;;;;1.40;1.40;;;23.90;99.90;;;;;;5048065;28;20556;-75
2022/07/24 19:40:43;;;;;;;2.03;1.25;;;23.80;99.90;;;;;;5054348;28;20442;-74
2022/07/24 19:43:10;;;;;;;1.40;1.27;;;23.70;99.90;;;;;;5051764;28;20429;-74
2022/07/24 19:45:44;;;;;;;1.90;1.70;;;23.70;99.90;;;;;;5036623;28;20440;-74
2022/07/24 19:48:11;;;;;;;1.58;1.48;;;23.60;99.90;;;;;;5054948;28;20526;-74
2022/07/24 19:50:39;;;;;;;1.20;1.20;;;23.60;99.90;;;;;;5078370;28;20917;-76
2022/07/24 19:53:26;;;;;;;1.20;1.20;;;23.50;99.90;;;;;;5045745;28;20419;-76
2022/07/24 19:55:53;;;;;;;1.52;1.42;;;23.40;99.90;;;;;;5056357;28;20921;-74
2022/07/24 19:58:20;;;;;;;1.30;1.20;;;23.30;99.90;;;;;;5072668;28;20835;-74
2022/07/24 20:00:46;;;;;;;1.20;1.20;;;23.10;99.90;;;;;;5060250;28;20423;-74
2022/07/24 20:03:13;;;;;;;1.63;1.52;;;23.00;99.90;;;;;;5042638;28;20448;-74
2022/07/24 20:05:40;;;;;;;1.10;1.10;;;23.00;99.90;;;;;;5059002;28;20425;-74
2022/07/24 20:08:07;;;;;;;1.35;1.35;;;22.90;99.90;;;;;;5042462;28;20487;-74
2022/07/24 20:10:34;;;;;;;1.27;1.10;;;22.80;99.90;;;;;;5057953;28;20435;-74
2022/07/24 20:13:01;;;;;;;0.98;0.90;;;22.80;99.90;;;;;;5053537;28;21248;-74
2022/07/24 20:15:28;;;;;;;1.55;1.25;;;22.70;99.90;;;;;;5048442;28;20465;-74
2022/07/24 20:17:57;;;;;;;1.10;1.10;;;22.70;99.90;;;;;;5053463;28;20509;-75
2022/07/24 20:20:24;;;;;;;1.63;1.52;;;22.60;99.90;;;;;;5030200;28;21018;-75
2022/07/24 20:22:53;;;;;;;0.98;0.98;;;22.60;99.90;;;;;;5053600;28;20504;-74
2022/07/24 20:25:20;;;;;;;0.97;0.97;;;22.50;99.90;;;;;;5062997;28;20453;-75
2022/07/24 20:27:47;;;;;;;1.38;1.30;;;22.40;99.90;;;;;;5045892;28;20525;-75
2022/07/24 20:30:15;;;;;;;1.50;1.40;;;22.30;99.90;;;;;;5059702;28;20526;-75
2022/07/24 20:32:42;;;;;;;1.30;1.27;;;22.20;99.90;;;;;;5048772;28;20617;-75
2022/07/24 20:35:14;;;;;;;1.33;1.23;;;22.20;99.90;;;;;;5046920;28;20425;-75
2022/07/24 20:37:41;;;;;;;1.35;1.30;;;22.10;99.90;;;;;;5037167;28;20828;-74
2022/07/24 20:40:09;;;;;;;1.25;1.15;;;22.00;99.90;;;;;;5043715;28;20507;-74
2022/07/24 20:42:36;;;;;;;1.35;1.27;;;22.00;99.90;;;;;;5042540;28;20516;-75
2022/07/24 20:45:05;;;;;;;1.38;1.27;;;21.90;99.90;;;;;;5040295;28;20444;-74
2022/07/24 20:47:32;;;;;;;1.30;1.30;;;21.80;99.90;;;;;;5046131;28;20435;-75
2022/07/24 20:49:59;;;;;;;1.00;1.00;;;21.80;99.90;;;;;;5052263;28;20507;-74
2022/07/24 20:52:32;;;;;;;1.60;1.50;;;21.80;99.90;;;;;;5043095;28;20511;-74
2022/07/24 20:54:58;;;;;;;1.75;1.38;;;21.70;99.90;;;;;;5075143;28;20433;-74
2022/07/24 20:57:26;;;;;;;1.40;1.30;;;21.70;99.90;;;;;;5040323;28;20427;-75
2022/07/24 20:59:53;;;;;;;1.50;1.40;;;21.60;99.90;;;;;;5048470;28;20776;-75
2022/07/24 21:02:20;;;;;;;1.55;1.50;;;21.60;99.90;;;;;;5062179;28;20530;-75
2022/07/24 21:04:47;;;;;;;1.20;1.20;;;21.50;99.90;;;;;;5049515;28;20431;-74
2022/07/24 21:07:14;;;;;;;1.40;1.30;;;21.40;99.90;;;;;;5053895;28;20432;-75
2022/07/24 21:09:41;;;;;;;1.63;1.52;;;21.40;99.90;;;;;;5039106;28;20433;-75
2022/07/24 21:12:09;;;;;;;1.23;1.23;;;21.30;99.90;;;;;;5039045;28;20776;-75
2022/07/24 21:14:36;;;;;;;1.40;1.30;;;21.30;99.90;;;;;;5065745;28;20472;-75
2022/07/24 21:17:03;;;;;;;1.27;1.25;;;21.30;99.90;;;;;;5067236;28;20468;-74
2022/07/24 21:19:30;;;;;;;1.23;1.20;;;21.30;99.90;;;;;;5069935;28;20487;-76
2022/07/24 21:21:57;;;;;;;1.35;1.25;;;21.30;99.90;;;;;;5051916;28;20849;-75
2022/07/24 21:24:24;;;;;;;1.33;1.23;;;21.30;99.90;;;;;;5064778;28;20425;-76
2022/07/24 21:26:51;;;;;;;1.43;1.33;;;21.20;99.90;;;;;;5050934;28;20519;-75
2022/07/24 21:29:18;;;;;;;1.73;1.63;;;21.20;99.90;;;;;;5053028;28;20439;-75
2022/07/24 21:31:44;;;;;;;1.42;1.42;;;21.00;99.90;;;;;;5073027;28;20522;-75
2022/07/24 21:34:13;;;;;;;1.20;1.10;;;21.00;99.90;;;;;;5059618;28;20508;-76
2022/07/24 21:36:40;;;;;;;1.13;1.13;;;20.90;99.90;;;;;;5053849;28;20441;-75
2022/07/24 21:39:08;;;;;;;1.27;1.27;;;20.80;99.90;;;;;;5048558;28;21098;-75
2022/07/24 21:41:35;;;;;;;1.15;1.15;;;20.80;99.90;;;;;;5053828;28;20423;-75
2022/07/24 21:44:01;;;;;;;1.30;1.20;;;20.80;99.90;;;;;;5062556;28;20463;-76
2022/07/24 21:46:29;;;;;;;1.50;1.40;;;20.80;99.90;;;;;;5048103;28;20431;-76
2022/07/24 21:48:56;;;;;;;1.02;1.02;;;20.70;99.90;;;;;;5050092;28;20473;-76
2022/07/24 21:51:23;;;;;;;1.33;1.23;;;20.70;99.90;;;;;;5059771;28;20434;-60
2022/07/24 21:53:50;;;;;;;1.38;1.35;;;20.60;99.90;;;;;;5049894;28;20471;-59
2022/07/24 21:56:17;;;;;;;1.15;1.15;;;20.50;99.90;;;;;;5058844;28;20439;-60
2022/07/24 21:58:46;;;;;;;2.10;1.43;;;20.50;99.90;;;;;;5041360;28;20469;-59
2022/07/24 22:01:13;;;;;;;1.55;1.45;;;20.40;99.90;;;;;;5050937;28;20461;-60
2022/07/24 22:03:40;;;;;;;1.55;1.30;;;20.30;99.90;;;;;;5063674;28;20459;-58
2022/07/24 22:06:07;;;;;;;1.45;1.45;;;20.10;99.90;;;;;;5055145;28;20508;-59
2022/07/24 22:08:40;;;;;;;1.13;1.02;;;19.90;99.90;;;;;;5048657;28;20931;-59
2022/07/24 22:11:06;;;;;;;1.13;1.10;;;19.80;99.90;;;;;;5059313;28;20431;-59
2022/07/24 22:13:33;;;;;;;1.38;1.27;;;19.70;99.90;;;;;;5039433;28;20618;-59
2022/07/24 22:16:00;;;;;;;1.50;1.40;;;19.70;99.90;;;;;;5069981;28;20435;-59
2022/07/24 22:18:27;;;;;;;1.55;1.48;;;19.60;99.90;;;;;;5061782;28;20445;-60
2022/07/24 22:20:54;;;;;;;1.30;1.30;;;19.50;99.90;;;;;;5051294;28;20584;-60
2022/07/24 22:23:20;;;;;;;1.60;1.50;;;19.40;99.90;;;;;;5051394;28;20432;-60
2022/07/24 22:25:52;;;;;;;1.60;1.50;;;19.40;99.90;;;;;;5072036;28;20427;-60
2022/07/24 22:28:19;;;;;;;1.52;1.50;;;19.30;99.90;;;;;;5060244;28;20436;-60
2022/07/24 22:30:52;;;;;;;1.15;1.08;;;19.20;99.90;;;;;;5059519;28;21088;-59
2022/07/24 22:33:19;;;;;;;1.63;1.52;;;19.20;99.90;;;;;;5042675;28;20429;-59
2022/07/24 22:35:46;;;;;;;1.20;1.20;;;19.20;99.90;;;;;;5064286;28;21046;-59
2022/07/24 22:38:15;;;;;;;1.30;1.30;;;19.20;99.90;;;;;;5054489;28;20448;-60
2022/07/24 22:40:44;;;;;;;1.30;1.27;;;19.20;99.90;;;;;;5053011;28;21062;-59
2022/07/24 22:43:13;;;;;;;1.52;1.45;;;19.30;99.90;;;;;;5063061;28;20439;-59
2022/07/24 22:45:45;;;;;;;1.00;1.00;;;19.30;99.90;;;;;;5054726;28;20937;-60
2022/07/24 22:48:16;;;;;;;1.90;1.65;;;19.20;99.90;;;;;;5047965;28;20454;-59
2022/07/24 22:50:44;;;;;;;1.45;1.35;;;19.20;99.90;;;;;;5057477;28;20782;-60
2022/07/24 22:53:12;;;;;;;1.60;1.50;;;19.10;99.90;;;;;;5065919;28;20431;-59
2022/07/24 22:55:39;;;;;;;1.50;1.40;;;19.00;99.90;;;;;;5041704;28;20619;-59
2022/07/24 22:58:06;;;;;;;1.50;1.40;;;18.90;99.90;;;;;;5059820;28;20444;-60
2022/07/24 23:00:33;;;;;;;1.50;1.40;;;18.90;99.90;;;;;;5049310;28;20438;-59
2022/07/24 23:03:00;;;;;;;1.90;1.80;;;19.00;99.90;;;;;;5045493;28;20445;-60
2022/07/24 23:05:29;;;;;;;1.58;1.48;;;19.00;99.90;;;;;;5048742;28;20930;-59
2022/07/24 23:07:59;;;;;;;1.30;1.30;;;19.00;99.90;;;;;;5057853;28;20423;-60
2022/07/24 23:10:28;;;;;;;1.23;1.23;;;19.00;99.90;;;;;;5041870;28;20518;-59
2022/07/24 23:12:58;;;;;;;1.10;1.10;;;19.00;99.90;;;;;;5057329;28;20442;-59
2022/07/24 23:15:32;;;;;;;1.52;1.42;;;18.90;99.90;;;;;;5074566;28;20437;-59
2022/07/24 23:17:59;;;;;;;1.42;1.40;;;18.90;99.90;;;;;;5049299;28;20509;-59
2022/07/24 23:20:27;;;;;;;1.67;1.58;;;18.80;99.90;;;;;;5047161;28;20764;-59
2022/07/24 23:22:54;;;;;;;1.40;1.40;;;18.70;99.90;;;;;;5059547;28;21030;-59
2022/07/24 23:25:21;;;;;;;1.60;1.58;;;18.60;99.90;;;;;;5062375;28;20437;-59
2022/07/24 23:27:48;;;;;;;1.35;1.35;;;18.60;99.90;;;;;;5057231;28;20429;-59
2022/07/24 23:30:14;;;;;;;1.80;1.70;;;18.50;99.90;;;;;;5061231;28;20433;-63
2022/07/24 23:32:41;;;;;;;1.67;1.58;;;18.50;99.90;;;;;;5051485;28;20481;-59
2022/07/24 23:35:10;;;;;;;1.70;1.60;;;18.40;99.90;;;;;;5061282;28;20510;-59
2022/07/24 23:37:37;;;;;;;2.00;1.90;;;18.30;99.90;;;;;;5054857;28;20437;-58
2022/07/24 23:40:05;;;;;;;1.35;1.30;;;18.30;99.90;;;;;;5053509;28;20501;-58
2022/07/24 23:42:32;;;;;;;2.17;1.40;;;18.30;99.90;;;;;;5053202;28;20421;-59
2022/07/24 23:44:58;;;;;;;1.52;1.42;;;18.30;99.90;;;;;;5060208;28;20423;-58
2022/07/24 23:47:25;;;;;;;1.75;1.52;;;18.30;99.90;;;;;;5052204;28;20495;-59
2022/07/24 23:49:52;;;;;;;1.45;1.35;;;18.20;99.90;;;;;;5080789;28;20458;-58
2022/07/24 23:52:19;;;;;;;1.80;1.70;;;18.20;99.90;;;;;;5052782;28;20581;-59
2022/07/24 23:54:46;;;;;;;1.70;1.60;;;18.10;99.90;;;;;;5058014;28;20490;-59
2022/07/24 23:57:13;;;;;;;1.42;1.33;;;18.10;99.90;;;;;;5049678;28;20433;-59
2022/07/24 23:59:42;;;;;;;1.60;1.50;;;18.00;99.90;;;;;;5063057;28;20979;-59
